createdAt,value
2019-03-26T00:00:53.328Z,74.67
2019-03-26T00:01:53.077Z,74.67
2019-03-26T00:02:53.357Z,74.58
2019-03-26T00:04:05.073Z,74.67
2019-03-26T00:04:53.400Z,74.67
2019-03-26T00:05:53.148Z,74.58
2019-03-26T00:06:53.433Z,74.48
2019-03-26T00:07:53.183Z,74.39
2019-03-26T00:08:53.476Z,74.58
2019-03-26T00:09:53.481Z,74.48
2019-03-26T00:10:53.502Z,74.48
2019-03-26T00:11:53.254Z,74.48
2019-03-26T00:12:53.272Z,74.48
2019-03-26T00:13:53.559Z,75.05
2019-03-26T00:14:53.308Z,74.87
2019-03-26T00:15:53.593Z,74.67
2019-03-26T00:16:53.357Z,74.77
2019-03-26T00:17:53.624Z,74.77
2019-03-26T00:18:53.381Z,74.67
2019-03-26T00:19:53.660Z,74.67
2019-03-26T00:20:53.416Z,74.77
2019-03-26T00:21:53.695Z,74.67
2019-03-26T00:22:53.453Z,74.77
2019-03-26T00:23:53.737Z,74.58
2019-03-26T00:24:53.486Z,74.77
2019-03-26T00:25:53.769Z,74.67
2019-03-26T00:26:53.797Z,75.05
2019-03-26T00:27:53.813Z,74.77
2019-03-26T00:28:53.559Z,74.67
2019-03-26T00:29:53.578Z,74.87
2019-03-26T00:30:53.858Z,74.48
2019-03-26T00:31:53.612Z,74.87
2019-03-26T00:32:53.891Z,75.24
2019-03-26T00:33:53.649Z,75.05
2019-03-26T00:34:53.932Z,74.48
2019-03-26T00:35:53.680Z,75.05
2019-03-26T00:36:53.699Z,75.05
2019-03-26T00:37:53.983Z,74.96
2019-03-26T00:38:54.195Z,74.87
2019-03-26T00:39:53.753Z,75.05
2019-03-26T00:40:53.773Z,75.05
2019-03-26T00:41:53.790Z,74.87
2019-03-26T00:42:54.117Z,74.87
2019-03-26T00:43:53.829Z,74.96
2019-03-26T00:44:53.842Z,74.87
2019-03-26T00:45:54.121Z,74.77
2019-03-26T00:46:54.141Z,74.96
2019-03-26T00:47:54.158Z,74.96
2019-03-26T00:48:53.916Z,74.87
2019-03-26T00:49:54.194Z,74.77
2019-03-26T00:50:53.956Z,74.96
2019-03-26T00:51:53.976Z,74.87
2019-03-26T00:52:54.248Z,74.77
2019-03-26T00:53:54.002Z,74.96
2019-03-26T00:54:54.023Z,74.96
2019-03-26T00:55:54.303Z,74.87
2019-03-26T00:56:54.060Z,74.87
2019-03-26T00:57:54.340Z,74.77
2019-03-26T00:58:54.353Z,74.96
2019-03-26T00:59:54.111Z,74.96
2019-03-26T01:00:54.410Z,75.05
2019-03-26T01:01:54.147Z,74.96
2019-03-26T01:02:54.426Z,74.87
2019-03-26T01:03:57.637Z,74.96
2019-03-26T01:04:54.199Z,74.77
2019-03-26T01:05:54.231Z,75.05
2019-03-26T01:06:54.500Z,74.96
2019-03-26T01:07:54.255Z,74.48
2019-03-26T01:08:54.542Z,74.96
2019-03-26T01:09:54.551Z,74.87
2019-03-26T01:10:54.308Z,74.77
2019-03-26T01:11:54.587Z,74.87
2019-03-26T01:12:54.603Z,74.77
2019-03-26T01:13:54.360Z,74.87
2019-03-26T01:14:54.379Z,74.96
2019-03-26T01:15:54.663Z,74.96
2019-03-26T01:16:54.746Z,74.96
2019-03-26T01:17:54.447Z,74.87
2019-03-26T01:18:54.452Z,74.96
2019-03-26T01:19:54.731Z,75.05
2019-03-26T01:20:54.487Z,75.24
2019-03-26T01:21:54.767Z,75.24
2019-03-26T01:22:54.520Z,75.24
2019-03-26T01:23:54.540Z,75.24
2019-03-26T01:24:54.820Z,75.15
2019-03-26T01:25:54.578Z,75.34
2019-03-26T01:26:54.596Z,75.34
2019-03-26T01:27:54.641Z,75.34
2019-03-26T01:28:54.631Z,75.05
2019-03-26T01:29:54.646Z,74.96
2019-03-26T01:30:54.670Z,74.77
2019-03-26T01:31:54.947Z,75.15
2019-03-26T01:32:54.701Z,75.15
2019-03-26T01:33:54.723Z,74.77
2019-03-26T01:34:54.735Z,74.87
2019-03-26T01:35:55.014Z,75.24
2019-03-26T01:36:54.777Z,75.05
2019-03-26T01:37:54.789Z,75.05
2019-03-26T01:38:54.811Z,74.96
2019-03-26T01:39:55.088Z,74.96
2019-03-26T01:40:54.849Z,75.15
2019-03-26T01:41:55.124Z,75.05
2019-03-26T01:42:54.876Z,74.96
2019-03-26T01:43:55.158Z,75.15
2019-03-26T01:44:54.912Z,75.05
2019-03-26T01:45:54.930Z,74.96
2019-03-26T01:46:54.952Z,75.02
2019-03-26T01:47:54.966Z,74.96
2019-03-26T01:48:54.985Z,75.05
2019-03-26T01:49:55.268Z,74.92
2019-03-26T01:50:55.021Z,75.05
2019-03-26T01:51:55.036Z,74.96
2019-03-26T01:52:55.316Z,75.05
2019-03-26T01:53:55.072Z,74.96
2019-03-26T01:54:55.351Z,74.77
2019-03-26T01:55:55.108Z,75.05
2019-03-26T01:56:55.124Z,74.96
2019-03-26T01:57:55.144Z,75.05
2019-03-26T01:58:55.425Z,75.43
2019-03-26T01:59:55.442Z,75.62
2019-03-26T02:00:55.197Z,75.59
2019-03-26T02:01:55.221Z,75.62
2019-03-26T02:02:55.231Z,74.87
2019-03-26T02:03:55.512Z,75.62
2019-03-26T02:05:02.314Z,75.62
2019-03-26T02:05:55.557Z,75.68
2019-03-26T02:06:55.302Z,75.72
2019-03-26T02:07:55.592Z,75.43
2019-03-26T02:08:55.605Z,75.4
2019-03-26T02:09:55.619Z,75.72
2019-03-26T02:10:55.375Z,75.53
2019-03-26T02:11:55.654Z,75.53
2019-03-26T02:12:55.409Z,75.49
2019-03-26T02:13:55.699Z,75.24
2019-03-26T02:14:55.448Z,75.3
2019-03-26T02:15:55.466Z,75.3
2019-03-26T02:16:55.742Z,75.3
2019-03-26T02:17:55.498Z,75.11
2019-03-26T02:18:55.521Z,75.21
2019-03-26T02:19:55.534Z,75.21
2019-03-26T02:20:55.551Z,75.3
2019-03-26T02:21:55.573Z,75.34
2019-03-26T02:22:55.859Z,75.3
2019-03-26T02:23:55.865Z,75.34
2019-03-26T02:24:55.619Z,75.3
2019-03-26T02:25:55.639Z,75.34
2019-03-26T02:26:55.658Z,75.11
2019-03-26T02:27:55.676Z,75.3
2019-03-26T02:28:55.956Z,75.4
2019-03-26T02:29:55.989Z,75.34
2019-03-26T02:30:56.005Z,75.49
2019-03-26T02:31:56.014Z,75.4
2019-03-26T02:32:55.768Z,75.05
2019-03-26T02:33:55.781Z,75.21
2019-03-26T02:34:56.064Z,75.4
2019-03-26T02:35:55.819Z,75.43
2019-03-26T02:36:56.114Z,75.24
2019-03-26T02:37:55.853Z,75.21
2019-03-26T02:38:56.134Z,75.34
2019-03-26T02:39:55.895Z,75.4
2019-03-26T02:40:55.914Z,75.43
2019-03-26T02:41:55.938Z,75.4
2019-03-26T02:42:55.944Z,75.21
2019-03-26T02:43:56.239Z,75.4
2019-03-26T02:44:56.253Z,75.3
2019-03-26T02:45:56.262Z,75.3
2019-03-26T02:46:56.012Z,75.3
2019-03-26T02:47:56.036Z,75.34
2019-03-26T02:48:56.328Z,75.62
2019-03-26T02:49:56.070Z,75.62
2019-03-26T02:50:56.345Z,75.3
2019-03-26T02:51:56.097Z,75.59
2019-03-26T02:52:56.397Z,75.3
2019-03-26T02:53:56.407Z,75.3
2019-03-26T02:54:56.156Z,75.81
2019-03-26T02:55:56.435Z,75.43
2019-03-26T02:56:56.196Z,75.59
2019-03-26T02:57:56.203Z,75.49
2019-03-26T02:58:56.487Z,75.68
2019-03-26T02:59:56.244Z,75.68
2019-03-26T03:00:56.523Z,75.59
2019-03-26T03:01:56.284Z,75.68
2019-03-26T03:02:56.328Z,75.59
2019-03-26T03:03:56.577Z,75.49
2019-03-26T03:04:56.329Z,75.49
2019-03-26T03:05:56.346Z,75.59
2019-03-26T03:06:56.633Z,75.49
2019-03-26T03:07:56.669Z,75.4
2019-03-26T03:08:56.666Z,75.49
2019-03-26T03:09:56.695Z,75.59
2019-03-26T03:10:56.490Z,75.59
2019-03-26T03:11:56.722Z,75.68
2019-03-26T03:12:56.466Z,75.68
2019-03-26T03:13:56.496Z,75.4
2019-03-26T03:14:56.778Z,75.49
2019-03-26T03:15:56.536Z,75.59
2019-03-26T03:16:56.542Z,75.49
2019-03-26T03:17:56.828Z,75.68
2019-03-26T03:18:56.849Z,75.4
2019-03-26T03:19:56.883Z,75.4
2019-03-26T03:20:56.879Z,75.78
2019-03-26T03:21:56.634Z,75.4
2019-03-26T03:22:56.910Z,75.78
2019-03-26T03:23:56.668Z,75.59
2019-03-26T03:24:56.947Z,75.59
2019-03-26T03:25:56.965Z,75.59
2019-03-26T03:26:56.990Z,75.4
2019-03-26T03:27:56.752Z,75.59
2019-03-26T03:28:57.017Z,75.68
2019-03-26T03:29:56.780Z,75.68
2019-03-26T03:30:56.806Z,75.59
2019-03-26T03:31:57.089Z,75.59
2019-03-26T03:32:56.831Z,75.68
2019-03-26T03:33:56.885Z,75.68
2019-03-26T03:34:57.162Z,75.4
2019-03-26T03:35:56.876Z,75.87
2019-03-26T03:36:57.263Z,75.59
2019-03-26T03:37:57.182Z,75.49
2019-03-26T03:38:56.951Z,75.68
2019-03-26T03:39:56.946Z,75.68
2019-03-26T03:40:56.966Z,75.59
2019-03-26T03:41:56.982Z,75.59
2019-03-26T03:42:57.277Z,75.59
2019-03-26T03:43:57.283Z,75.68
2019-03-26T03:44:57.356Z,75.59
2019-03-26T03:45:57.065Z,75.68
2019-03-26T03:46:57.071Z,75.68
2019-03-26T03:47:57.350Z,75.68
2019-03-26T03:48:57.368Z,75.4
2019-03-26T03:49:57.128Z,75.4
2019-03-26T03:50:57.404Z,75.78
2019-03-26T03:51:57.426Z,75.4
2019-03-26T03:52:57.178Z,75.59
2019-03-26T03:53:57.303Z,75.4
2019-03-26T03:54:57.472Z,75.4
2019-03-26T03:55:57.498Z,75.4
2019-03-26T03:56:57.518Z,75.4
2019-03-26T03:57:57.267Z,75.59
2019-03-26T03:58:57.544Z,75.59
2019-03-26T03:59:57.297Z,75.49
2019-03-26T04:00:57.576Z,75.59
2019-03-26T04:01:57.595Z,75.59
2019-03-26T04:02:57.616Z,75.59
2019-03-26T04:03:57.636Z,75.4
2019-03-26T04:04:57.387Z,75.49
2019-03-26T04:06:11.289Z,75.49
2019-03-26T04:06:57.699Z,75.59
2019-03-26T04:07:57.439Z,75.59
2019-03-26T04:08:57.723Z,75.59
2019-03-26T04:09:57.478Z,75.49
2019-03-26T04:10:57.751Z,75.59
2019-03-26T04:11:57.517Z,75.59
2019-03-26T04:12:57.531Z,75.49
2019-03-26T04:13:57.815Z,75.59
2019-03-26T04:14:57.824Z,75.59
2019-03-26T04:15:57.579Z,75.49
2019-03-26T04:16:57.596Z,75.49
2019-03-26T04:17:57.893Z,75.59
2019-03-26T04:18:57.896Z,75.78
2019-03-26T04:19:57.644Z,75.59
2019-03-26T04:20:57.927Z,75.49
2019-03-26T04:21:57.944Z,75.49
2019-03-26T04:22:57.697Z,75.4
2019-03-26T04:23:57.981Z,75.59
2019-03-26T04:24:57.739Z,75.49
2019-03-26T04:25:58.020Z,75.49
2019-03-26T04:26:57.772Z,75.59
2019-03-26T04:27:57.795Z,75.59
2019-03-26T04:28:57.888Z,75.49
2019-03-26T04:29:58.082Z,75.49
2019-03-26T04:30:58.106Z,75.68
2019-03-26T04:31:58.127Z,75.59
2019-03-26T04:32:58.134Z,75.49
2019-03-26T04:33:58.154Z,75.49
2019-03-26T04:34:57.909Z,75.59
2019-03-26T04:35:58.195Z,75.68
2019-03-26T04:36:58.056Z,75.49
2019-03-26T04:37:58.224Z,75.3
2019-03-26T04:38:58.245Z,75.59
2019-03-26T04:39:58.004Z,75.59
2019-03-26T04:40:58.275Z,75.49
2019-03-26T04:41:58.040Z,75.59
2019-03-26T04:42:58.052Z,75.49
2019-03-26T04:43:58.082Z,75.49
2019-03-26T04:44:58.343Z,75.49
2019-03-26T04:45:58.360Z,75.49
2019-03-26T04:46:58.128Z,75.49
2019-03-26T04:47:58.139Z,75.59
2019-03-26T04:48:58.413Z,75.59
2019-03-26T04:49:58.432Z,75.4
2019-03-26T04:50:58.451Z,75.49
2019-03-26T04:51:58.208Z,75.68
2019-03-26T04:52:58.488Z,75.49
2019-03-26T04:53:58.502Z,75.4
2019-03-26T04:54:58.256Z,75.4
2019-03-26T04:55:58.277Z,75.4
2019-03-26T04:56:58.556Z,75.49
2019-03-26T04:57:58.310Z,75.78
2019-03-26T04:58:58.328Z,75.59
2019-03-26T04:59:58.344Z,75.68
2019-03-26T05:00:58.368Z,75.68
2019-03-26T05:01:58.642Z,75.68
2019-03-26T05:02:58.400Z,75.68
2019-03-26T05:03:58.416Z,75.59
2019-03-26T05:04:58.436Z,75.59
2019-03-26T05:05:58.712Z,75.21
2019-03-26T05:06:58.729Z,75.21
2019-03-26T05:07:58.485Z,75.11
2019-03-26T05:08:58.767Z,75.11
2019-03-26T05:09:58.782Z,75.11
2019-03-26T05:10:58.544Z,75.11
2019-03-26T05:11:58.558Z,75.11
2019-03-26T05:12:58.843Z,75.11
2019-03-26T05:13:58.850Z,75.68
2019-03-26T05:14:58.609Z,75.11
2019-03-26T05:15:58.626Z,75.11
2019-03-26T05:16:58.991Z,75.4
2019-03-26T05:17:59.452Z,75.4
2019-03-26T05:18:58.939Z,75.4
2019-03-26T05:19:58.696Z,75.3
2019-03-26T05:20:58.711Z,75.3
2019-03-26T05:21:58.731Z,75.3
2019-03-26T05:22:58.753Z,75.3
2019-03-26T05:23:59.035Z,75.4
2019-03-26T05:24:58.789Z,75.4
2019-03-26T05:25:58.800Z,75.4
2019-03-26T05:26:59.081Z,75.3
2019-03-26T05:27:59.097Z,75.11
2019-03-26T05:28:58.859Z,75.21
2019-03-26T05:29:59.147Z,75.21
2019-03-26T05:30:58.889Z,75.4
2019-03-26T05:31:58.907Z,75.21
2019-03-26T05:32:58.923Z,75.21
2019-03-26T05:33:58.945Z,75.68
2019-03-26T05:34:58.969Z,75.68
2019-03-26T05:35:59.239Z,75.21
2019-03-26T05:36:58.998Z,75.3
2019-03-26T05:37:59.273Z,75.21
2019-03-26T05:38:59.291Z,75.3
2019-03-26T05:39:59.323Z,75.21
2019-03-26T05:40:59.066Z,75.49
2019-03-26T05:41:59.084Z,75.49
2019-03-26T05:42:59.101Z,75.4
2019-03-26T05:43:59.118Z,75.3
2019-03-26T05:44:59.400Z,75.4
2019-03-26T05:45:59.155Z,75.49
2019-03-26T05:47:01.501Z,75.49
2019-03-26T05:47:59.192Z,75.3
2019-03-26T05:48:59.205Z,75.3
2019-03-26T05:49:59.490Z,75.21
2019-03-26T05:50:59.240Z,75.3
2019-03-26T05:51:59.524Z,75.21
2019-03-26T05:52:59.285Z,75.21
2019-03-26T05:53:59.558Z,75.3
2019-03-26T05:54:59.313Z,75.4
2019-03-26T05:55:59.591Z,75.3
2019-03-26T05:56:59.347Z,75.21
2019-03-26T05:57:59.365Z,75.3
2019-03-26T05:58:59.385Z,75.4
2019-03-26T05:59:59.399Z,75.68
2019-03-26T06:00:59.419Z,75.49
2019-03-26T06:01:59.435Z,75.59
2019-03-26T06:02:59.470Z,75.49
2019-03-26T06:03:59.734Z,74.63
2019-03-26T06:04:59.749Z,74.92
2019-03-26T06:05:59.773Z,74.73
2019-03-26T06:07:07.415Z,75.02
2019-03-26T06:07:59.806Z,74.92
2019-03-26T06:08:59.820Z,74.92
2019-03-26T06:09:59.580Z,74.92
2019-03-26T06:10:59.856Z,75.02
2019-03-26T06:11:59.613Z,75.02
2019-03-26T06:12:59.895Z,74.92
2019-03-26T06:13:59.648Z,75.11
2019-03-26T06:14:59.929Z,74.73
2019-03-26T06:15:59.950Z,74.73
2019-03-26T06:16:59.699Z,75.11
2019-03-26T06:17:59.925Z,74.73
2019-03-26T06:18:59.735Z,75.11
2019-03-26T06:20:00.016Z,74.92
2019-03-26T06:20:59.772Z,74.63
2019-03-26T06:22:00.061Z,74.63
2019-03-26T06:23:00.066Z,75.02
2019-03-26T06:23:59.839Z,75.21
2019-03-26T06:24:59.842Z,75.21
2019-03-26T06:26:00.152Z,75.21
2019-03-26T06:26:59.877Z,74.92
2019-03-26T06:27:59.961Z,74.92
2019-03-26T06:29:01.161Z,75.02
2019-03-26T06:30:00.382Z,74.82
2019-03-26T06:30:59.950Z,74.82
2019-03-26T06:31:59.969Z,74.82
2019-03-26T06:33:00.246Z,74.92
2019-03-26T06:33:59.999Z,74.92
2019-03-26T06:35:00.020Z,74.82
2019-03-26T06:36:00.038Z,75.11
2019-03-26T06:37:00.054Z,74.44
2019-03-26T06:38:00.072Z,74.44
2019-03-26T06:39:00.090Z,75.02
2019-03-26T06:40:00.778Z,74.63
2019-03-26T06:41:00.387Z,74.63
2019-03-26T06:42:00.407Z,74.63
2019-03-26T06:43:00.211Z,74.54
2019-03-26T06:44:00.439Z,74.63
2019-03-26T06:45:00.322Z,74.63
2019-03-26T06:46:00.211Z,74.63
2019-03-26T06:47:00.233Z,74.63
2019-03-26T06:48:00.514Z,74.63
2019-03-26T06:49:00.273Z,74.73
2019-03-26T06:50:00.366Z,74.63
2019-03-26T06:51:00.302Z,74.82
2019-03-26T06:52:00.325Z,74.63
2019-03-26T06:53:00.347Z,74.44
2019-03-26T06:54:00.617Z,74.44
2019-03-26T06:55:00.638Z,74.44
2019-03-26T06:56:00.392Z,74.35
2019-03-26T06:57:00.672Z,74.63
2019-03-26T06:58:00.425Z,74.54
2019-03-26T06:59:00.444Z,74.44
2019-03-26T07:00:00.463Z,74.82
2019-03-26T07:01:00.486Z,74.63
2019-03-26T07:02:00.762Z,74.92
2019-03-26T07:03:00.516Z,74.54
2019-03-26T07:04:00.535Z,74.63
2019-03-26T07:05:00.550Z,74.73
2019-03-26T07:06:00.568Z,74.63
2019-03-26T07:07:00.588Z,74.35
2019-03-26T07:08:00.872Z,74.07
2019-03-26T07:09:00.888Z,74.26
2019-03-26T07:10:00.644Z,74.26
2019-03-26T07:11:00.920Z,74.26
2019-03-26T07:12:00.675Z,74.16
2019-03-26T07:13:00.955Z,73.88
2019-03-26T07:14:00.708Z,74.26
2019-03-26T07:15:01.000Z,74.26
2019-03-26T07:16:00.744Z,74.07
2019-03-26T07:17:01.077Z,74.2
2019-03-26T07:18:00.782Z,74.29
2019-03-26T07:19:00.798Z,74.07
2019-03-26T07:20:01.081Z,74.16
2019-03-26T07:21:01.099Z,74.39
2019-03-26T07:22:01.135Z,74.26
2019-03-26T07:23:00.874Z,74.44
2019-03-26T07:24:01.155Z,74.29
2019-03-26T07:25:00.903Z,74.35
2019-03-26T07:26:00.925Z,74.48
2019-03-26T07:27:00.946Z,74.39
2019-03-26T07:28:01.226Z,74.39
2019-03-26T07:29:00.977Z,73.63
2019-03-26T07:30:00.997Z,73.63
2019-03-26T07:31:01.358Z,73.63
2019-03-26T07:32:01.030Z,73.91
2019-03-26T07:33:01.052Z,73.91
2019-03-26T07:34:01.069Z,73.91
2019-03-26T07:35:01.084Z,73.97
2019-03-26T07:36:01.365Z,74.01
2019-03-26T07:37:01.435Z,74.1
2019-03-26T07:38:01.141Z,74.29
2019-03-26T07:39:01.161Z,74.2
2019-03-26T07:40:01.178Z,74.29
2019-03-26T07:41:01.457Z,74.2
2019-03-26T07:42:01.209Z,73.82
2019-03-26T07:43:01.490Z,73.72
2019-03-26T07:44:01.524Z,73.82
2019-03-26T07:45:01.264Z,73.72
2019-03-26T07:46:01.283Z,73.53
2019-03-26T07:47:01.571Z,73.82
2019-03-26T07:48:01.320Z,74.1
2019-03-26T07:49:01.335Z,73.53
2019-03-26T07:50:01.613Z,73.53
2019-03-26T07:51:01.370Z,73.91
2019-03-26T07:52:01.388Z,73.34
2019-03-26T07:53:01.672Z,73.25
2019-03-26T07:54:01.421Z,73.25
2019-03-26T07:55:01.445Z,73.15
2019-03-26T07:56:01.726Z,73.06
2019-03-26T07:57:01.536Z,73.06
2019-03-26T07:58:01.498Z,73.25
2019-03-26T07:59:01.512Z,72.86
2019-03-26T08:00:01.796Z,73.34
2019-03-26T08:01:01.552Z,73.53
2019-03-26T08:02:01.572Z,73.06
2019-03-26T08:03:01.584Z,73.15
2019-03-26T08:04:01.864Z,73.34
2019-03-26T08:05:01.884Z,73.25
2019-03-26T08:06:01.902Z,73.25
2019-03-26T08:07:01.690Z,73.15
2019-03-26T08:08:01.680Z,73.15
2019-03-26T08:09:01.964Z,73.06
2019-03-26T08:10:01.976Z,73.25
2019-03-26T08:11:01.993Z,72.67
2019-03-26T08:12:02.011Z,72.77
2019-03-26T08:13:01.857Z,72.77
2019-03-26T08:14:01.820Z,72.71
2019-03-26T08:15:01.809Z,72.67
2019-03-26T08:16:01.892Z,73.06
2019-03-26T08:17:01.879Z,72.77
2019-03-26T08:18:01.858Z,72.71
2019-03-26T08:19:01.879Z,73.19
2019-03-26T08:20:02.156Z,73.1
2019-03-26T08:21:01.990Z,73.15
2019-03-26T08:22:02.193Z,72.86
2019-03-26T08:23:02.212Z,73.06
2019-03-26T08:24:02.231Z,72.9
2019-03-26T08:25:02.248Z,72.86
2019-03-26T08:26:02.006Z,73.25
2019-03-26T08:27:02.025Z,72.86
2019-03-26T08:28:04.861Z,73.1
2019-03-26T08:29:03.321Z,72.86
2019-03-26T08:30:02.080Z,72.86
2019-03-26T08:31:02.105Z,73.06
2019-03-26T08:32:02.110Z,72.86
2019-03-26T08:33:02.130Z,72.86
2019-03-26T08:34:02.152Z,73.06
2019-03-26T08:35:02.433Z,73.06
2019-03-26T08:36:02.450Z,72.77
2019-03-26T08:37:02.202Z,73.06
2019-03-26T08:38:14.808Z,73.34
2019-03-26T08:39:02.239Z,73.25
2019-03-26T08:40:02.491Z,73.25
2019-03-26T08:41:02.295Z,73.34
2019-03-26T08:42:02.297Z,73.25
2019-03-26T08:43:02.311Z,73.25
2019-03-26T08:44:02.329Z,73.25
2019-03-26T08:45:02.802Z,72.96
2019-03-26T08:46:02.627Z,72.77
2019-03-26T08:47:02.649Z,73.06
2019-03-26T08:48:02.454Z,72.77
2019-03-26T08:49:02.422Z,73.06
2019-03-26T08:50:02.587Z,72.62
2019-03-26T08:51:02.466Z,72.67
2019-03-26T08:52:02.473Z,72.42
2019-03-26T08:53:02.494Z,72.52
2019-03-26T08:54:02.511Z,72.9
2019-03-26T08:55:04.302Z,72.9
2019-03-26T08:56:02.808Z,72.9
2019-03-26T08:57:02.832Z,72.24
2019-03-26T08:58:02.852Z,72.05
2019-03-26T08:59:02.868Z,72.05
2019-03-26T09:00:02.967Z,72.05
2019-03-26T09:01:02.903Z,72.14
2019-03-26T09:02:02.920Z,72.24
2019-03-26T09:03:02.675Z,71.95
2019-03-26T09:04:02.963Z,71.95
2019-03-26T09:05:02.975Z,72.24
2019-03-26T09:06:02.731Z,72.05
2019-03-26T09:07:02.747Z,72.05
2019-03-26T09:08:02.774Z,72.33
2019-03-26T09:09:02.784Z,71.95
2019-03-26T09:10:03.080Z,71.76
2019-03-26T09:11:03.089Z,72.05
2019-03-26T09:12:02.842Z,71.38
2019-03-26T09:13:03.020Z,71.38
2019-03-26T09:14:02.876Z,71.67
2019-03-26T09:15:02.895Z,71.86
2019-03-26T09:16:02.914Z,71.76
2019-03-26T09:17:03.194Z,71.57
2019-03-26T09:18:03.213Z,71.57
2019-03-26T09:19:03.229Z,71.67
2019-03-26T09:20:03.252Z,71.28
2019-03-26T09:21:03.007Z,71.32
2019-03-26T09:22:03.021Z,71.47
2019-03-26T09:23:03.303Z,71.51
2019-03-26T09:24:03.319Z,70.75
2019-03-26T09:25:03.338Z,70.75
2019-03-26T09:26:03.097Z,71.22
2019-03-26T09:27:03.111Z,71.32
2019-03-26T09:28:03.398Z,70.65
2019-03-26T09:29:03.409Z,70.94
2019-03-26T09:30:03.193Z,70.94
2019-03-26T09:31:03.193Z,71.13
2019-03-26T09:32:03.484Z,71.13
2019-03-26T09:33:03.502Z,71.13
2019-03-26T09:34:03.243Z,71.32
2019-03-26T09:35:03.531Z,71.22
2019-03-26T09:36:03.279Z,70.94
2019-03-26T09:37:03.296Z,71.42
2019-03-26T09:38:03.580Z,70.94
2019-03-26T09:39:03.336Z,70.94
2019-03-26T09:40:03.356Z,71.42
2019-03-26T09:41:03.638Z,71.03
2019-03-26T09:42:03.391Z,70.84
2019-03-26T09:43:03.410Z,70.47
2019-03-26T09:44:03.429Z,71.03
2019-03-26T09:45:03.713Z,70.75
2019-03-26T09:46:03.470Z,70.47
2019-03-26T09:47:15.426Z,70.47
2019-03-26T09:48:03.506Z,70.47
2019-03-26T09:49:03.530Z,70.47
2019-03-26T09:50:03.576Z,70.65
2019-03-26T09:51:03.822Z,70.37
2019-03-26T09:52:03.580Z,70.94
2019-03-26T09:53:03.872Z,70.75
2019-03-26T09:54:03.615Z,70.47
2019-03-26T09:55:03.898Z,71.03
2019-03-26T09:56:03.918Z,71.22
2019-03-26T09:57:03.672Z,70.84
2019-03-26T09:58:03.953Z,70.84
2019-03-26T09:59:03.777Z,71.32
2019-03-26T10:00:03.990Z,71.13
2019-03-26T10:01:04.008Z,70.84
2019-03-26T10:02:03.766Z,70.65
2019-03-26T10:03:03.786Z,71.51
2019-03-26T10:04:03.805Z,71.51
2019-03-26T10:05:03.826Z,71.51
2019-03-26T10:06:04.106Z,71.7
2019-03-26T10:07:04.121Z,71.22
2019-03-26T10:08:04.140Z,71.61
2019-03-26T10:09:04.158Z,71.51
2019-03-26T10:10:03.915Z,71.8
2019-03-26T10:11:04.200Z,71.47
2019-03-26T10:12:04.217Z,71.28
2019-03-26T10:13:04.230Z,72.05
2019-03-26T10:14:04.248Z,71.47
2019-03-26T10:15:04.007Z,71.42
2019-03-26T10:16:04.030Z,71.61
2019-03-26T10:17:04.314Z,72.05
2019-03-26T10:18:04.328Z,72.05
2019-03-26T10:19:04.120Z,71.76
2019-03-26T10:20:04.099Z,71.95
2019-03-26T10:21:04.379Z,72.52
2019-03-26T10:22:04.422Z,72.24
2019-03-26T10:23:04.165Z,72.33
2019-03-26T10:24:04.174Z,72.14
2019-03-26T10:25:04.490Z,72.42
2019-03-26T10:26:04.209Z,72.33
2019-03-26T10:27:04.490Z,72.33
2019-03-26T10:28:04.510Z,72.33
2019-03-26T10:29:30.341Z,72.14
2019-03-26T10:30:05.827Z,72.14
2019-03-26T10:31:04.304Z,71.98
2019-03-26T10:32:04.326Z,71.8
2019-03-26T10:33:04.598Z,71.98
2019-03-26T10:34:04.618Z,71.28
2019-03-26T10:35:04.379Z,71.89
2019-03-26T10:36:04.394Z,71.8
2019-03-26T10:37:04.698Z,71.51
2019-03-26T10:38:04.693Z,71.76
2019-03-26T10:41:07.084Z,71.86
2019-03-26T10:41:18.630Z,72.14
2019-03-26T10:43:28.200Z,72.08
2019-03-26T10:44:28.212Z,72.05
2019-03-26T10:45:27.969Z,71.98
2019-03-26T10:46:28.248Z,71.98
2019-03-26T10:47:28.023Z,71.8
2019-03-26T10:48:28.026Z,71.95
2019-03-26T10:49:28.311Z,71.76
2019-03-26T10:50:28.065Z,71.86
2019-03-26T10:51:28.342Z,72.08
2019-03-26T10:52:31.547Z,72.37
2019-03-26T10:53:28.119Z,72.33
2019-03-26T10:54:28.398Z,72.08
2019-03-26T10:55:28.419Z,72.24
2019-03-26T10:56:28.175Z,72.24
2019-03-26T10:57:28.191Z,72.14
2019-03-26T10:58:28.470Z,72.27
2019-03-26T10:59:28.231Z,71.76
2019-03-26T11:00:28.511Z,72.42
2019-03-26T11:01:28.279Z,71.86
2019-03-26T11:02:28.291Z,71.89
2019-03-26T11:03:28.302Z,71.76
2019-03-26T11:04:28.583Z,72.08
2019-03-26T11:05:28.339Z,71.95
2019-03-26T11:06:28.358Z,71.86
2019-03-26T11:07:28.374Z,71.98
2019-03-26T11:08:28.398Z,71.8
2019-03-26T11:09:29.512Z,71.86
2019-03-26T11:10:28.694Z,71.8
2019-03-26T11:11:28.458Z,71.8
2019-03-26T11:12:28.732Z,72.08
2019-03-26T11:13:28.755Z,72.08
2019-03-26T11:14:31.582Z,72.08
2019-03-26T11:15:28.789Z,71.89
2019-03-26T11:16:28.545Z,71.42
2019-03-26T11:17:28.824Z,72.14
2019-03-26T11:18:28.579Z,71.42
2019-03-26T11:19:28.862Z,71.57
2019-03-26T11:20:28.894Z,71.42
2019-03-26T11:21:28.637Z,71.42
2019-03-26T11:22:28.921Z,71.61
2019-03-26T11:23:28.674Z,71.51
2019-03-26T11:24:28.960Z,71.61
2019-03-26T11:25:28.722Z,71.7
2019-03-26T11:26:28.993Z,71.67
2019-03-26T11:27:28.752Z,71.7
2019-03-26T11:28:29.033Z,71.8
2019-03-26T11:29:28.795Z,71.51
2019-03-26T11:30:29.072Z,71.8
2019-03-26T11:31:32.228Z,71.61
2019-03-26T11:32:29.115Z,71.61
2019-03-26T11:33:28.863Z,71.51
2019-03-26T11:34:29.142Z,71.61
2019-03-26T11:35:28.899Z,71.61
2019-03-26T11:36:28.916Z,71.61
2019-03-26T11:37:28.941Z,71.7
2019-03-26T11:38:29.225Z,71.89
2019-03-26T11:39:35.157Z,71.61
2019-03-26T11:40:28.990Z,71.8
2019-03-26T11:41:29.010Z,71.61
2019-03-26T11:42:29.294Z,71.8
2019-03-26T11:43:29.048Z,71.7
2019-03-26T11:44:29.330Z,71.51
2019-03-26T11:45:29.088Z,71.61
2019-03-26T11:46:29.366Z,71.7
2019-03-26T11:47:29.384Z,71.51
2019-03-26T11:48:29.141Z,71.42
2019-03-26T11:49:29.164Z,71.51
2019-03-26T11:50:29.179Z,71.51
2019-03-26T11:51:29.201Z,71.51
2019-03-26T11:52:29.218Z,71.03
2019-03-26T11:53:29.241Z,71.22
2019-03-26T11:54:29.516Z,71.03
2019-03-26T11:55:29.356Z,71.13
2019-03-26T11:56:29.295Z,70.84
2019-03-26T11:57:29.571Z,70.56
2019-03-26T11:58:33.181Z,70.47
2019-03-26T11:59:29.612Z,70.65
2019-03-26T12:00:29.628Z,70.56
2019-03-26T12:01:29.386Z,70.37
2019-03-26T12:02:29.859Z,70.37
2019-03-26T12:03:29.688Z,70.84
2019-03-26T12:04:29.444Z,70.37
2019-03-26T12:05:29.464Z,70.37
2019-03-26T12:06:29.486Z,70.84
2019-03-26T12:07:29.505Z,70.65
2019-03-26T12:08:29.518Z,70.56
2019-03-26T12:09:29.897Z,70.84
2019-03-26T12:10:29.820Z,70.94
2019-03-26T12:11:29.576Z,70.75
2019-03-26T12:12:29.597Z,70.75
2019-03-26T12:13:29.876Z,70.65
2019-03-26T12:14:29.897Z,70.69
2019-03-26T12:15:29.651Z,70.65
2019-03-26T12:16:29.670Z,70.56
2019-03-26T12:17:29.948Z,70.37
2019-03-26T12:18:29.969Z,70.47
2019-03-26T12:19:29.724Z,70.47
2019-03-26T12:20:29.747Z,70.5
2019-03-26T12:21:30.027Z,70.94
2019-03-26T12:22:31.393Z,70.65
2019-03-26T12:23:29.801Z,70.78
2019-03-26T12:24:29.822Z,70.78
2019-03-26T12:25:29.837Z,70.78
2019-03-26T12:26:29.860Z,70.37
2019-03-26T12:27:29.887Z,70.65
2019-03-26T12:28:29.898Z,70.56
2019-03-26T12:29:30.202Z,70.65
2019-03-26T12:30:30.199Z,70.47
2019-03-26T12:31:29.952Z,70.56
2019-03-26T12:32:30.236Z,70.94
2019-03-26T12:33:29.994Z,71.32
2019-03-26T12:34:30.272Z,71.32
2019-03-26T12:35:30.299Z,71.13
2019-03-26T12:36:42.002Z,71.32
2019-03-26T12:37:30.068Z,71.13
2019-03-26T12:38:30.086Z,71.13
2019-03-26T12:39:30.372Z,70.75
2019-03-26T12:40:30.388Z,70.84
2019-03-26T12:41:30.149Z,71.03
2019-03-26T12:42:30.428Z,70.94
2019-03-26T12:43:30.445Z,71.42
2019-03-26T12:44:30.205Z,71.8
2019-03-26T12:45:30.485Z,71.51
2019-03-26T12:46:30.505Z,71.42
2019-03-26T12:47:30.257Z,71.42
2019-03-26T12:48:30.275Z,71.7
2019-03-26T12:49:30.557Z,71.7
2019-03-26T12:50:32.119Z,71.8
2019-03-26T12:51:30.608Z,71.8
2019-03-26T12:52:30.351Z,71.61
2019-03-26T12:53:30.373Z,71.8
2019-03-26T12:54:30.414Z,71.89
2019-03-26T12:55:30.406Z,71.98
2019-03-26T12:56:30.428Z,71.8
2019-03-26T12:57:30.707Z,71.8
2019-03-26T12:58:36.502Z,71.61
2019-03-26T12:59:30.802Z,72.08